createdAt,value
2023-05-21T00:01:59.326Z,53.60
2023-05-21T00:04:28.426Z,53.70
2023-05-21T00:06:57.408Z,53.60
2023-05-21T00:09:26.341Z,53.90
2023-05-21T00:11:55.290Z,54.20
2023-05-21T00:14:24.186Z,54.20
2023-05-21T00:16:53.138Z,54.60
2023-05-21T00:19:22.300Z,54.60
2023-05-21T00:21:51.271Z,54.50
2023-05-21T00:24:20.263Z,54.10
2023-05-21T00:26:49.276Z,54.80
2023-05-21T00:29:18.149Z,54.60
2023-05-21T00:31:50.168Z,54.60
2023-05-21T00:34:21.258Z,54.70
2023-05-21T00:36:50.344Z,54.70
2023-05-21T00:39:19.543Z,54.90
2023-05-21T00:41:48.641Z,55.50
2023-05-21T00:44:17.522Z,55.30
2023-05-21T00:46:46.515Z,55.60
2023-05-21T00:49:15.414Z,55.60
2023-05-21T00:51:44.298Z,55.60
2023-05-21T00:54:13.218Z,55.70
2023-05-21T00:56:42.609Z,55.40
2023-05-21T00:59:11.601Z,55.70
2023-05-21T01:01:40.833Z,55.30
2023-05-21T01:04:09.989Z,56.30
2023-05-21T01:06:38.993Z,56.40
2023-05-21T01:09:08.277Z,56.70
2023-05-21T01:11:37.375Z,56.40
2023-05-21T01:14:12.203Z,56.20
2023-05-21T01:16:44.868Z,54.50
2023-05-21T01:19:13.973Z,54.40
2023-05-21T01:21:43.171Z,54.20
2023-05-21T01:24:12.485Z,54.10
2023-05-21T01:26:41.414Z,53.80
2023-05-21T01:29:10.367Z,53.80
2023-05-21T01:31:39.451Z,53.80
2023-05-21T01:34:08.397Z,54.50
2023-05-21T01:36:37.334Z,53.80
2023-05-21T01:39:06.611Z,53.70
2023-05-21T01:41:35.857Z,53.50
2023-05-21T01:44:04.833Z,53.70
2023-05-21T01:46:34.164Z,53.60
2023-05-21T01:49:03.438Z,53.70
2023-05-21T01:51:32.425Z,53.70
2023-05-21T01:54:01.632Z,53.70
2023-05-21T01:56:31.036Z,53.60
2023-05-21T01:59:00.031Z,53.70
2023-05-21T02:01:29.180Z,53.70
2023-05-21T02:03:58.415Z,53.70
2023-05-21T02:06:30.144Z,53.60
2023-05-21T02:08:59.388Z,53.60
2023-05-21T02:11:28.578Z,53.50
2023-05-21T02:13:58.089Z,53.70
2023-05-21T02:16:27.095Z,53.80
2023-05-21T02:18:56.197Z,53.70
2023-05-21T02:21:25.268Z,53.70
2023-05-21T02:23:54.160Z,53.80
2023-05-21T02:26:23.263Z,53.80
2023-05-21T02:28:52.457Z,53.80
2023-05-21T02:31:21.657Z,53.80
2023-05-21T02:33:50.770Z,53.80
2023-05-21T02:36:19.839Z,53.80
2023-05-21T02:38:48.786Z,53.90
2023-05-21T02:41:18.046Z,53.90
2023-05-21T02:43:47.027Z,53.90
2023-05-21T02:46:16.730Z,53.90
2023-05-21T02:48:46.082Z,53.90
2023-05-21T02:51:16.400Z,54.00
2023-05-21T02:53:45.778Z,54.00
2023-05-21T02:56:14.863Z,54.00
2023-05-21T02:58:43.850Z,54.00
2023-05-21T03:01:13.080Z,54.10
2023-05-21T03:03:42.400Z,54.00
2023-05-21T03:06:11.288Z,54.20
2023-05-21T03:08:40.239Z,54.20
2023-05-21T03:11:09.233Z,54.20
2023-05-21T03:13:38.367Z,54.70
2023-05-21T03:16:07.501Z,55.10
2023-05-21T03:18:36.932Z,54.80
2023-05-21T03:21:06.017Z,54.30
2023-05-21T03:23:35.009Z,54.40
2023-05-21T03:26:04.011Z,54.50
2023-05-21T03:28:34.439Z,54.60
2023-05-21T03:31:03.336Z,54.40
2023-05-21T03:33:33.860Z,55.00
2023-05-21T03:36:04.490Z,54.60
2023-05-21T03:38:35.953Z,54.90
2023-05-21T03:41:05.346Z,54.70
2023-05-21T03:43:34.649Z,54.70
2023-05-21T03:46:04.097Z,54.80
2023-05-21T03:48:40.407Z,55.20
2023-05-21T03:51:10.940Z,55.40
2023-05-21T03:53:40.127Z,55.30
2023-05-21T03:56:09.241Z,55.20
2023-05-21T03:58:38.227Z,55.30
2023-05-21T04:01:10.373Z,55.30
2023-05-21T04:03:41.262Z,55.40
2023-05-21T04:06:11.768Z,55.50
2023-05-21T04:08:40.992Z,55.50
2023-05-21T04:11:10.216Z,55.50
2023-05-21T04:13:39.147Z,55.40
2023-05-21T04:16:08.487Z,55.40
2023-05-21T04:18:37.662Z,55.50
2023-05-21T04:21:07.066Z,55.40
2023-05-21T04:23:36.350Z,55.40
2023-05-21T04:26:06.788Z,55.50
2023-05-21T04:28:36.082Z,55.50
2023-05-21T04:31:05.094Z,55.50
2023-05-21T04:33:34.100Z,55.40
2023-05-21T04:36:03.387Z,55.40
2023-05-21T04:38:32.266Z,55.60
2023-05-21T04:41:01.250Z,55.50
2023-05-21T04:43:30.316Z,55.60
2023-05-21T04:46:00.773Z,55.40
2023-05-21T04:48:29.870Z,55.50
2023-05-21T04:50:58.827Z,55.50
2023-05-21T04:53:28.468Z,55.50
2023-05-21T04:55:57.563Z,55.40
2023-05-21T04:58:26.771Z,55.50
2023-05-21T05:00:56.098Z,55.40
2023-05-21T05:03:25.262Z,55.50
2023-05-21T05:05:54.361Z,55.30
2023-05-21T05:08:23.669Z,55.60
2023-05-21T05:10:52.659Z,55.30
2023-05-21T05:13:22.067Z,55.30
2023-05-21T05:15:52.587Z,55.30
2023-05-21T05:18:22.093Z,55.40
2023-05-21T05:20:51.493Z,55.30
2023-05-21T05:23:20.595Z,55.30
2023-05-21T05:25:51.576Z,55.20
2023-05-21T05:28:20.293Z,55.30
2023-05-21T05:30:49.855Z,55.20
2023-05-21T05:33:20.451Z,55.20
2023-05-21T05:35:49.652Z,55.10
2023-05-21T05:38:18.851Z,55.00
2023-05-21T05:40:48.566Z,55.20
2023-05-21T05:43:18.914Z,55.10
2023-05-21T05:45:48.313Z,55.00
2023-05-21T05:48:17.606Z,55.00
2023-05-21T05:50:46.783Z,55.00
2023-05-21T05:53:15.883Z,55.00
2023-05-21T05:55:45.085Z,54.90
2023-05-21T05:58:14.780Z,54.90
2023-05-21T06:00:45.715Z,54.90
2023-05-21T06:03:14.969Z,54.90
2023-05-21T06:05:44.119Z,54.90
2023-05-21T06:08:13.219Z,54.90
2023-05-21T06:10:42.220Z,54.80
2023-05-21T06:13:11.395Z,54.80
2023-05-21T06:15:40.606Z,54.70
2023-05-21T06:18:10.114Z,54.70
2023-05-21T06:20:39.624Z,54.70
2023-05-21T06:23:09.221Z,54.70
2023-05-21T06:25:38.730Z,54.60
2023-05-21T06:28:08.858Z,54.70
2023-05-21T06:30:39.792Z,54.60
2023-05-21T06:33:09.863Z,54.50
2023-05-21T06:35:38.999Z,54.40
2023-05-21T06:38:08.790Z,54.30
2023-05-21T06:40:38.228Z,53.80
2023-05-21T06:43:08.937Z,53.90
2023-05-21T06:45:42.278Z,54.00
2023-05-21T06:48:19.235Z,53.80
2023-05-21T06:50:48.729Z,53.80
2023-05-21T06:53:18.663Z,53.60
2023-05-21T06:55:47.546Z,53.90
2023-05-21T06:58:21.143Z,53.20
2023-05-21T07:00:50.468Z,53.00
2023-05-21T07:03:23.167Z,53.00
2023-05-21T07:05:53.053Z,52.80
2023-05-21T07:08:22.450Z,52.70
2023-05-21T07:10:51.952Z,52.70
2023-05-21T07:13:21.125Z,52.50
2023-05-21T07:15:50.129Z,52.40
2023-05-21T07:18:20.877Z,52.50
2023-05-21T07:20:51.403Z,52.40
2023-05-21T07:23:21.421Z,52.30
2023-05-21T07:25:50.820Z,52.30
2023-05-21T07:28:20.533Z,52.40
2023-05-21T07:30:49.926Z,52.40
2023-05-21T07:33:20.449Z,52.30
2023-05-21T07:35:50.172Z,52.40
2023-05-21T07:38:19.571Z,52.40
2023-05-21T07:40:48.895Z,52.40
2023-05-21T07:43:18.396Z,52.70
2023-05-21T07:45:47.902Z,52.60
2023-05-21T07:48:17.293Z,52.40
2023-05-21T12:43:48.205Z,54.00
2023-05-21T12:46:18.054Z,54.30
2023-05-21T12:48:47.638Z,54.30
2023-05-21T12:51:16.834Z,54.30
2023-05-21T12:53:46.016Z,54.20
2023-05-21T12:56:15.221Z,54.30
2023-05-21T12:58:44.629Z,54.60
2023-05-21T13:01:13.683Z,55.00
2023-05-21T13:03:43.178Z,55.20
2023-05-21T13:06:12.627Z,55.30
2023-05-21T13:08:41.922Z,55.30
2023-05-21T13:11:11.434Z,55.40
2023-05-21T13:13:40.636Z,55.40
2023-05-21T13:16:09.767Z,55.30
2023-05-21T13:18:39.439Z,55.20
2023-05-21T13:21:08.634Z,55.10
2023-05-21T13:23:37.839Z,55.00
2023-05-21T13:26:06.935Z,55.10
2023-05-21T13:28:36.132Z,55.80
2023-05-21T13:31:05.622Z,54.40
2023-05-21T13:33:35.094Z,49.80
2023-05-21T13:36:04.538Z,48.20
2023-05-21T13:38:33.743Z,47.90
2023-05-21T13:41:02.838Z,48.30
2023-05-21T13:43:32.241Z,48.10
2023-05-21T13:46:01.332Z,48.60
2023-05-21T13:48:30.733Z,48.90
2023-05-21T13:51:00.244Z,49.50
2023-05-21T13:53:29.331Z,50.80
2023-05-21T13:55:58.426Z,51.20
2023-05-21T13:58:27.715Z,51.20
2023-05-21T14:00:56.971Z,51.00
2023-05-21T14:03:26.155Z,50.70
2023-05-21T14:05:55.308Z,50.50
2023-05-21T14:08:24.409Z,50.50
2023-05-21T14:10:53.729Z,51.30
2023-05-21T14:13:22.944Z,51.60
2023-05-21T14:15:52.210Z,52.30
2023-05-21T14:18:23.414Z,52.30
2023-05-21T14:20:52.768Z,52.10
2023-05-21T14:23:22.259Z,53.10
2023-05-21T14:25:51.575Z,53.20
2023-05-21T14:28:20.764Z,53.40
2023-05-21T14:30:49.858Z,52.70
2023-05-21T14:33:19.228Z,52.60
2023-05-21T14:35:48.367Z,52.30
2023-05-21T14:38:17.661Z,53.00
2023-05-21T14:40:46.746Z,52.30
2023-05-21T14:43:15.753Z,51.90
2023-05-21T14:45:44.995Z,52.00
2023-05-21T14:48:14.250Z,51.90
2023-05-21T14:50:43.663Z,51.60
2023-05-21T14:53:12.925Z,51.60
2023-05-21T14:55:42.782Z,51.50
2023-05-21T14:58:12.270Z,51.50
2023-05-21T15:00:41.675Z,52.40
2023-05-21T15:03:10.719Z,51.70
2023-05-21T15:05:40.170Z,52.40
2023-05-21T15:08:09.163Z,51.80
2023-05-21T15:10:38.562Z,51.60
2023-05-21T15:13:07.749Z,51.60
2023-05-21T15:15:38.033Z,51.50
2023-05-21T15:18:07.709Z,51.70
2023-05-21T15:20:37.000Z,52.20
2023-05-21T15:23:15.972Z,52.60
2023-05-21T15:25:36.949Z,51.90
2023-05-21T15:28:06.654Z,51.00
2023-05-21T15:30:35.835Z,50.70
2023-05-21T15:33:05.023Z,50.10
2023-05-21T15:35:34.457Z,49.90
2023-05-21T15:38:03.755Z,49.40
2023-05-21T15:40:33.204Z,49.50
2023-05-21T15:43:02.549Z,50.10
2023-05-21T15:45:31.531Z,50.30
2023-05-21T15:48:00.889Z,50.20
2023-05-21T15:50:30.247Z,50.30
2023-05-21T15:52:59.592Z,50.30
2023-05-21T15:55:28.835Z,50.30
2023-05-21T15:57:59.582Z,50.30
2023-05-21T16:00:28.890Z,50.20
2023-05-21T16:02:58.310Z,50.00
2023-05-21T16:05:27.775Z,49.90
2023-05-21T16:07:57.090Z,49.90
2023-05-21T16:10:26.076Z,50.10
2023-05-21T16:12:55.172Z,50.10
2023-05-21T16:15:24.588Z,50.20
2023-05-21T16:17:53.757Z,50.20
2023-05-21T16:20:22.974Z,50.40
2023-05-21T16:22:52.277Z,50.30
2023-05-21T16:25:21.372Z,50.60
2023-05-21T16:27:50.465Z,50.80
2023-05-21T16:30:22.394Z,50.50
2023-05-21T16:32:51.872Z,50.40
2023-05-21T16:35:21.237Z,50.30
2023-05-21T16:37:50.326Z,50.30
2023-05-21T16:40:19.739Z,50.30
2023-05-21T16:42:49.140Z,50.20
2023-05-21T16:45:18.332Z,50.30
2023-05-21T16:47:48.189Z,50.40
2023-05-21T16:50:17.459Z,50.50
2023-05-21T16:52:46.654Z,50.20
2023-05-21T16:55:15.744Z,50.20
2023-05-21T16:57:44.834Z,50.00
2023-05-21T17:00:14.030Z,49.90
2023-05-21T17:02:43.491Z,49.60
2023-05-21T17:05:13.052Z,49.50
2023-05-21T17:07:42.558Z,49.60
2023-05-21T17:10:11.655Z,49.70
2023-05-21T17:12:40.750Z,50.50
2023-05-21T17:15:10.157Z,49.80
2023-05-21T17:17:39.381Z,50.00
2023-05-21T17:20:08.548Z,50.20
2023-05-21T17:22:37.992Z,50.20
2023-05-21T17:25:07.249Z,50.10
2023-05-21T17:27:36.530Z,50.20
2023-05-21T17:30:05.860Z,50.30
2023-05-21T17:32:35.294Z,50.50
2023-05-21T17:35:04.656Z,50.60
2023-05-21T17:37:34.064Z,50.60
2023-05-21T17:40:03.572Z,50.60
2023-05-21T17:42:32.661Z,50.60
2023-05-21T17:45:01.969Z,50.70
2023-05-21T17:47:31.287Z,50.50
2023-05-21T17:50:00.451Z,50.40
2023-05-21T17:52:29.544Z,50.40
2023-05-21T17:54:58.749Z,50.30
2023-05-21T17:57:27.950Z,50.40
2023-05-21T17:59:57.039Z,50.40
2023-05-21T18:02:28.164Z,50.60
2023-05-21T18:04:57.177Z,50.60
2023-05-21T18:07:26.062Z,50.70
2023-05-21T18:09:55.167Z,50.80
2023-05-21T18:12:24.376Z,51.00
2023-05-21T18:14:53.327Z,51.20
2023-05-21T18:17:22.352Z,51.20
2023-05-21T18:19:51.565Z,51.60
2023-05-21T18:22:21.484Z,51.90
2023-05-21T18:24:50.456Z,51.80
2023-05-21T18:27:19.658Z,51.90
2023-05-21T18:29:48.538Z,52.30
2023-05-21T18:32:17.497Z,51.70
2023-05-21T18:34:46.741Z,51.70
2023-05-21T18:37:16.039Z,51.60
2023-05-21T18:39:45.026Z,51.70
2023-05-21T18:42:14.573Z,51.80
2023-05-21T18:44:43.525Z,51.80
2023-05-21T18:47:12.414Z,51.80
2023-05-21T18:49:41.521Z,51.70
2023-05-21T18:52:10.825Z,51.70
2023-05-21T18:54:39.703Z,51.50
2023-05-21T18:57:08.709Z,51.50
2023-05-21T18:59:38.004Z,51.30
2023-05-21T19:02:07.115Z,51.30
2023-05-21T19:04:36.093Z,51.20
2023-05-21T19:07:05.085Z,51.10
2023-05-21T19:09:33.981Z,50.90
2023-05-21T19:12:02.964Z,50.90
2023-05-21T19:14:32.169Z,51.00
2023-05-21T19:17:01.266Z,50.80
2023-05-21T19:19:30.274Z,50.60
2023-05-21T19:21:59.348Z,50.60
2023-05-21T19:24:28.560Z,50.30
2023-05-21T19:26:57.969Z,50.30
2023-05-21T19:29:28.223Z,50.50
2023-05-21T19:31:57.169Z,50.30
2023-05-21T19:34:26.245Z,50.40
2023-05-21T19:36:58.342Z,50.40
2023-05-21T19:39:27.324Z,50.40
2023-05-21T19:41:56.433Z,50.50
2023-05-21T19:44:28.349Z,50.70
2023-05-21T19:46:57.693Z,50.70
2023-05-21T19:49:27.185Z,51.10
2023-05-21T19:51:56.287Z,51.10
2023-05-21T19:54:25.213Z,51.00
2023-05-21T19:56:54.061Z,50.70
2023-05-21T19:59:22.965Z,50.60
2023-05-21T20:01:51.851Z,50.60
2023-05-21T20:04:21.126Z,50.60
2023-05-21T20:06:50.352Z,50.50
2023-05-21T20:09:19.239Z,50.60
2023-05-21T20:11:48.140Z,50.50
2023-05-21T20:14:17.333Z,50.40
2023-05-21T20:16:46.686Z,51.00
2023-05-21T20:19:15.987Z,50.40
2023-05-21T20:21:45.362Z,50.40
2023-05-21T20:24:14.220Z,50.40
2023-05-21T20:26:43.218Z,50.30
2023-05-21T20:29:12.394Z,50.30
2023-05-21T20:31:41.401Z,50.40
2023-05-21T20:34:10.289Z,50.20
2023-05-21T20:36:39.285Z,50.20
2023-05-21T20:39:08.487Z,50.20
2023-05-21T20:41:37.863Z,50.10
2023-05-21T20:44:06.778Z,50.00
2023-05-21T20:46:35.688Z,49.90
2023-05-21T20:49:04.978Z,49.80
2023-05-21T20:51:34.484Z,49.70
2023-05-21T20:54:03.673Z,49.60
2023-05-21T20:59:02.783Z,49.70
2023-05-21T21:01:33.817Z,49.70
2023-05-21T21:04:02.946Z,49.70
2023-05-21T21:06:32.198Z,49.60
2023-05-21T21:09:01.228Z,49.80
2023-05-21T21:11:30.301Z,49.70
2023-05-21T21:13:59.523Z,49.70
2023-05-21T21:16:28.442Z,49.60
2023-05-21T21:18:57.592Z,49.50
2023-05-21T21:21:26.690Z,49.50
2023-05-21T21:23:55.889Z,49.60
2023-05-21T21:26:24.782Z,49.60
2023-05-21T21:28:53.881Z,49.90
2023-05-21T21:31:23.080Z,50.20
2023-05-21T21:33:52.116Z,50.80
2023-05-21T21:36:21.059Z,51.30
2023-05-21T21:38:50.276Z,51.50
2023-05-21T21:41:19.457Z,52.50
2023-05-21T21:43:48.696Z,51.80
2023-05-21T21:46:17.999Z,50.70
2023-05-21T21:48:46.956Z,50.20
2023-05-21T21:51:15.846Z,49.80
2023-05-21T21:53:44.742Z,49.40
2023-05-21T21:56:14.138Z,49.20
2023-05-21T21:58:43.125Z,49.50
2023-05-21T22:01:12.094Z,50.20
2023-05-21T22:03:44.834Z,50.60
2023-05-21T22:06:13.884Z,50.50
2023-05-21T22:08:42.888Z,50.60
2023-05-21T22:11:11.989Z,50.90
2023-05-21T22:13:42.648Z,51.00
2023-05-21T22:16:11.525Z,51.40
2023-05-21T22:18:41.428Z,51.40
2023-05-21T22:21:11.193Z,51.50
2023-05-21T22:23:40.148Z,51.60
2023-05-21T22:26:09.151Z,51.30
2023-05-21T22:28:38.423Z,51.20
2023-05-21T22:31:07.562Z,51.10
2023-05-21T22:33:36.517Z,51.40
2023-05-21T22:36:05.415Z,51.40
2023-05-21T22:38:34.617Z,51.60
2023-05-21T22:41:03.699Z,51.70
2023-05-21T22:43:34.780Z,51.70
2023-05-21T22:46:04.068Z,53.10
2023-05-21T22:48:34.680Z,53.90
2023-05-21T22:51:03.561Z,54.50
2023-05-21T22:53:32.772Z,55.10
2023-05-21T22:56:02.175Z,56.10
2023-05-21T22:58:31.085Z,56.10
2023-05-21T23:01:00.471Z,56.30
2023-05-21T23:03:29.348Z,56.90
2023-05-21T23:05:58.554Z,56.80
2023-05-21T23:08:30.437Z,58.40
2023-05-21T23:10:59.610Z,57.50
2023-05-21T23:13:28.699Z,57.80
2023-05-21T23:15:57.627Z,57.30
2023-05-21T23:18:26.998Z,56.10
2023-05-21T23:20:58.989Z,55.40
2023-05-21T23:23:28.260Z,56.40
2023-05-21T23:25:57.251Z,56.60
2023-05-21T23:28:26.470Z,56.70
2023-05-21T23:30:55.862Z,56.80
2023-05-21T23:33:25.345Z,57.40
2023-05-21T23:35:54.448Z,58.10
2023-05-21T23:38:23.763Z,57.40
2023-05-21T23:40:52.745Z,57.40
2023-05-21T23:43:22.060Z,57.70
2023-05-21T23:45:51.429Z,57.60
2023-05-21T23:48:20.694Z,57.60
2023-05-21T23:50:49.949Z,57.90
2023-05-21T23:53:19.462Z,57.80
2023-05-21T23:55:48.766Z,57.60
2023-05-21T23:58:17.950Z,57.90
